Roy Baker — WDC2698 — position and weather

sailwx.info

Track history (hours):
 
Tides and Currents Weather Stations Pressure Air Temp Water Temp Dewpoint Dewpoint Depression Visibility Wind Speed Wind Dir Waves Ship Positions

Roy Baker

Owner: Kirby Inland Marine LP, Houston, TX. More information available from US FCC via Universal Licensing System and Coast Guard Vessel Documentation Center.

Last reported at 2015-Aug-26 06:33 UTC. Time now 2015-Aug-29 03:03 UTC.
Position N 30°00' W 089°56'.

Length 24 m; draft 2.3 m.

Type: Towing. MMSI: 366996540.

Date/timePositionNaut miles runAvg speedWind from/ knotsBaromVisibWave heightAir tempDewpointWater temp
2015-Aug-26 06:33N 30°00' W 089°56'5 5.0
2015-Aug-26 05:33N 29°59' W 090°01'1 1.0
2015-Aug-26 04:32N 29°58' W 090°02'39 1.2
2015-Aug-24 20:08N 29°35' W 090°38'2 3.0
2015-Aug-24 19:32N 29°36' W 090°40'3 3.0
2015-Aug-24 18:33N 29°35' W 090°43'  
2015-Aug-19 22:32N 29°32' W 090°53'6 6.5
2015-Aug-19 21:33N 29°33' W 090°45'5 5.2
2015-Aug-19 20:33N 29°37' W 090°42'1 0.6
2015-Aug-19 19:33N 29°37' W 090°41'5 4.9
2015-Aug-19 18:33N 29°35' W 090°36'  
2015-Aug-16 10:14N 29°57' W 090°01'4 6.3
2015-Aug-16 09:33N 29°55' W 090°05'3 1.6
2015-Aug-16 07:28N 29°56' W 090°08'  
Track history (hours):
 
Tides and Currents Weather Stations Pressure Air Temp Water Temp Dewpoint Dewpoint Depression Visibility Wind Speed Wind Dir Waves Ship Positions

Roy Baker

Owner: Kirby Inland Marine LP, Houston, TX. More information available from US FCC via Universal Licensing System and Coast Guard Vessel Documentation Center.

Last reported at 2015-Aug-26 06:33 UTC. Time now 2015-Aug-29 03:03 UTC.
Position N 30°00' W 089°56'.

Length 24 m; draft 2.3 m.

Type: Towing. MMSI: 366996540.

Date/timePositionNaut miles runAvg speedWind from/ knotsBaromVisibWave heightAir tempDewpointWater temp
2015-Aug-26 06:33N 30°00' W 089°56'5 5.0
2015-Aug-26 05:33N 29°59' W 090°01'1 1.0
2015-Aug-26 04:32N 29°58' W 090°02'39 1.2
2015-Aug-24 20:08N 29°35' W 090°38'2 3.0
2015-Aug-24 19:32N 29°36' W 090°40'3 3.0
2015-Aug-24 18:33N 29°35' W 090°43'  
2015-Aug-19 22:32N 29°32' W 090°53'6 6.5
2015-Aug-19 21:33N 29°33' W 090°45'5 5.2
2015-Aug-19 20:33N 29°37' W 090°42'1 0.6
2015-Aug-19 19:33N 29°37' W 090°41'5 4.9
2015-Aug-19 18:33N 29°35' W 090°36'  
2015-Aug-16 10:14N 29°57' W 090°01'4 6.3
2015-Aug-16 09:33N 29°55' W 090°05'3 1.6
2015-Aug-16 07:28N 29°56' W 090°08'  

Dump ship's entire track history